Time;durP1;ratioP1;P1;durP2;ratioP2;P2;SDS_P1;SDS_P2;PMS_P1;PMS_P2;Temp;Humidity;BMP_temperature;BMP_pressure;BME280_temperature;BME280_humidity;BME280_pressure;Samples;Min_cycle;Max_cycle;Signal;HPM_P1;HPM_P2
2021/09/08 00:01:21;;;;;;;19.10;12.07;;;;;;;12.80;100.00;101690.84;5054162;28;20218;-70
2021/09/08 00:03:47;;;;;;;16.27;11.90;;;;;;;12.83;100.00;101687.16;5055672;28;20202;-71
2021/09/08 00:06:12;;;;;;;16.33;12.23;;;;;;;12.82;100.00;101688.97;5054033;28;20229;-71
2021/09/08 00:08:37;;;;;;;16.87;12.40;;;;;;;12.81;100.00;101689.91;5053481;28;20179;-71
2021/09/08 00:11:02;;;;;;;18.77;13.47;;;;;;;12.86;100.00;101683.47;5053434;28;20199;-71
2021/09/08 00:13:29;;;;;;;18.57;13.17;;;;;;;12.85;100.00;101690.63;5053966;28;20175;-70
2021/09/08 00:15:55;;;;;;;24.60;13.90;;;;;;;12.82;100.00;101691.66;5053152;28;20203;-71
2021/09/08 00:18:20;;;;;;;20.00;12.73;;;;;;;12.74;100.00;101693.84;5035653;28;20174;-70
2021/09/08 00:20:45;;;;;;;21.43;13.37;;;;;;;12.67;100.00;101692.41;5035565;28;20704;-71
2021/09/08 00:23:11;;;;;;;16.23;12.70;;;;;;;12.64;100.00;101684.50;5035657;28;20172;-71
2021/09/08 00:25:36;;;;;;;16.10;12.50;;;;;;;12.61;100.00;101687.31;5036219;28;20265;-71
2021/09/08 00:28:01;;;;;;;17.33;12.43;;;;;;;12.58;100.00;101684.78;5053439;28;20645;-71
2021/09/08 00:30:27;;;;;;;17.30;12.57;;;;;;;12.54;100.00;101685.88;5035795;28;20174;-71
2021/09/08 00:32:52;;;;;;;14.63;12.33;;;;;;;12.53;100.00;101690.34;5053369;28;20580;-71
2021/09/08 00:35:18;;;;;;;18.87;13.70;;;;;;;12.58;100.00;101691.94;5053813;28;20552;-71
2021/09/08 00:37:43;;;;;;;17.10;14.60;;;;;;;12.49;100.00;101691.44;5053419;28;20172;-71
2021/09/08 00:40:09;;;;;;;21.30;13.80;;;;;;;12.46;100.00;101688.03;5053631;28;20167;-70
2021/09/08 00:42:35;;;;;;;21.90;14.03;;;;;;;12.45;100.00;101689.00;5035156;28;20203;-71
2021/09/08 00:45:00;;;;;;;17.23;13.40;;;;;;;12.47;100.00;101689.78;5053433;28;20245;-71
2021/09/08 00:47:25;;;;;;;19.67;13.13;;;;;;;12.49;100.00;101693.25;5053276;28;20183;-70
2021/09/08 00:49:51;;;;;;;20.50;13.57;;;;;;;12.46;100.00;101698.75;5035384;28;20179;-71
2021/09/08 00:52:16;;;;;;;16.80;12.73;;;;;;;12.48;100.00;101688.84;5035603;28;20175;-70
2021/09/08 00:54:49;;;;;;;20.83;12.13;;;;;;;12.41;100.00;101690.94;5053176;28;20199;-71
2021/09/08 00:57:15;;;;;;;17.90;12.50;;;;;;;12.31;100.00;101695.00;5035670;28;20167;-70
2021/09/08 00:59:44;;;;;;;17.93;11.60;;;;;;;12.26;100.00;101680.94;5035268;28;20629;-71
2021/09/08 01:02:10;;;;;;;15.97;11.13;;;;;;;12.23;100.00;101683.75;5034904;28;20282;-71
2021/09/08 01:04:35;;;;;;;14.00;10.93;;;;;;;12.23;100.00;101682.88;5052914;28;20262;-71
2021/09/08 01:07:02;;;;;;;15.70;11.73;;;;;;;12.26;100.00;101674.72;5035526;28;20581;-71
2021/09/08 01:09:27;;;;;;;14.63;11.70;;;;;;;12.27;100.00;101685.38;5035181;28;20168;-71
2021/09/08 01:11:53;;;;;;;17.80;11.63;;;;;;;12.18;100.00;101678.63;5035329;28;20175;-71
2021/09/08 01:14:18;;;;;;;19.13;12.27;;;;;;;12.13;100.00;101680.66;5036209;28;20625;-71
2021/09/08 01:16:48;;;;;;;19.47;11.53;;;;;;;12.09;100.00;101672.84;5055239;28;20187;-71
2021/09/08 01:19:13;;;;;;;13.93;10.73;;;;;;;12.07;100.00;101677.38;5053486;28;20297;-71
2021/09/08 01:21:38;;;;;;;19.10;11.93;;;;;;;12.11;100.00;101681.66;5052862;28;20195;-71
2021/09/08 01:24:08;;;;;;;19.50;13.03;;;;;;;12.15;100.00;101678.75;5053044;28;20191;-70
2021/09/08 01:26:37;;;;;;;18.97;12.63;;;;;;;12.11;100.00;101666.47;5035077;28;20282;-70
2021/09/08 01:29:03;;;;;;;18.80;11.10;;;;;;;12.06;100.00;101667.63;5035027;28;20203;-68
2021/09/08 01:31:28;;;;;;;16.77;11.10;;;;;;;12.03;100.00;101668.63;5035173;28;20179;-69
2021/09/08 01:33:54;;;;;;;14.47;10.50;;;;;;;12.03;100.00;101670.44;5053204;28;20179;-70
2021/09/08 01:36:19;;;;;;;15.03;10.13;;;;;;;11.98;100.00;101664.44;5053182;28;20534;-71
2021/09/08 01:38:45;;;;;;;13.40;9.97;;;;;;;11.99;100.00;101668.84;5035031;28;20168;-71
2021/09/08 01:41:10;;;;;;;16.37;10.23;;;;;;;11.94;100.00;101666.38;5037074;28;20328;-71
2021/09/08 01:43:36;;;;;;;13.60;11.07;;;;;;;11.95;100.00;101665.44;5058028;28;20175;-71
2021/09/08 01:46:01;;;;;;;14.20;11.93;;;;;;;11.96;100.00;101669.84;5038179;28;20191;-71
2021/09/08 01:48:26;;;;;;;16.67;13.50;;;;;;;11.99;100.00;101659.00;5034866;28;20179;-70
2021/09/08 01:50:52;;;;;;;16.30;12.70;;;;;;;12.00;100.00;101663.44;5034816;28;20168;-70
2021/09/08 01:53:17;;;;;;;17.13;12.27;;;;;;;11.99;100.00;101660.81;5052668;28;20176;-70
2021/09/08 01:55:42;;;;;;;18.37;11.63;;;;;;;11.96;100.00;101663.63;5052643;28;20195;-70
2021/09/08 01:58:08;;;;;;;14.03;10.37;;;;;;;11.92;100.00;101657.56;5034800;28;20179;-70
2021/09/08 02:00:33;;;;;;;12.47;9.50;;;;;;;11.87;100.00;101660.41;5035149;28;20559;-70
2021/09/08 02:02:58;;;;;;;13.13;10.03;;;;;;;11.85;100.00;101656.06;5053031;28;20198;-69
2021/09/08 02:05:24;;;;;;;14.37;9.73;;;;;;;11.85;100.00;101661.44;5052459;28;20191;-70
2021/09/08 02:07:49;;;;;;;14.50;10.10;;;;;;;11.80;100.00;101660.75;5052468;28;20168;-70
2021/09/08 02:10:14;;;;;;;13.80;11.57;;;;;;;11.78;100.00;101657.28;5052380;28;20176;-70
2021/09/08 02:12:42;;;;;;;20.60;11.87;;;;;;;11.80;100.00;101656.28;5034519;28;20660;-70
2021/09/08 02:15:07;;;;;;;14.70;10.03;;;;;;;11.81;100.00;101662.50;5036092;28;20211;-70
2021/09/08 02:17:33;;;;;;;13.07;10.10;;;;;;;11.79;100.00;101662.56;5055870;28;20178;-70
2021/09/08 02:19:58;;;;;;;17.43;10.30;;;;;;;11.76;100.00;101656.47;5056119;28;20187;-70
2021/09/08 02:22:23;;;;;;;13.17;9.93;;;;;;;11.75;100.00;101660.94;5055495;28;20278;-70
2021/09/08 02:24:49;;;;;;;12.27;9.37;;;;;;;11.74;100.00;101658.34;5055960;28;20187;-70
2021/09/08 02:27:14;;;;;;;20.27;9.43;;;;;;;11.71;100.00;101659.34;5037767;28;20182;-71
2021/09/08 02:29:40;;;;;;;16.87;9.20;;;;;;;11.70;100.00;101648.72;5056105;28;20301;-70
2021/09/08 02:32:05;;;;;;;17.03;8.90;;;;;;;11.68;100.00;101645.25;5055777;28;20680;-71
2021/09/08 02:34:31;;;;;;;13.93;9.03;;;;;;;11.64;100.00;101649.88;5037529;28;20599;-72
2021/09/08 02:36:56;;;;;;;13.47;8.50;;;;;;;11.66;100.00;101657.81;5037841;28;20189;-71
2021/09/08 02:39:21;;;;;;;11.53;8.63;;;;;;;11.63;100.00;101647.25;5055567;28;20203;-71
2021/09/08 02:41:47;;;;;;;12.33;8.33;;;;;;;11.62;100.00;101648.19;5037321;28;20196;-70
2021/09/08 02:44:12;;;;;;;12.23;8.80;;;;;;;11.58;100.00;101653.69;5037411;28;20191;-70
2021/09/08 02:46:38;;;;;;;14.90;7.90;;;;;;;11.58;100.00;101651.00;5055004;28;20279;-71
2021/09/08 02:49:03;;;;;;;10.77;7.77;;;;;;;11.56;100.00;101647.53;5055127;28;20168;-71
2021/09/08 02:51:28;;;;;;;13.03;8.43;;;;;;;11.55;100.00;101648.47;5037404;28;20203;-71
2021/09/08 02:53:53;;;;;;;10.23;7.53;;;;;;;11.54;100.00;101644.06;5055163;28;20198;-71
2021/09/08 02:56:19;;;;;;;10.13;8.00;;;;;;;11.52;100.00;101648.63;5054949;28;20195;-71
2021/09/08 02:58:44;;;;;;;8.73;7.23;;;;;;;11.48;100.00;101646.97;5054928;28;20178;-70
2021/09/08 03:01:11;;;;;;;10.47;7.70;;;;;;;11.44;100.00;101649.84;5037224;28;20670;-72
2021/09/08 03:03:36;;;;;;;10.90;7.27;;;;;;;11.43;100.00;101656.13;5055069;28;20648;-71
2021/09/08 03:06:02;;;;;;;10.47;7.73;;;;;;;11.41;100.00;101655.34;5036938;28;20192;-71
2021/09/08 03:08:27;;;;;;;10.73;8.10;;;;;;;11.38;100.00;101642.97;5036923;28;20624;-70
2021/09/08 03:10:52;;;;;;;10.87;8.50;;;;;;;11.39;100.00;101650.06;5036919;28;20171;-71
2021/09/08 03:13:18;;;;;;;10.23;8.33;;;;;;;11.39;100.00;101647.38;5055045;28;20172;-71
2021/09/08 03:15:44;;;;;;;13.10;8.70;;;;;;;11.40;100.00;101648.25;5036722;28;20207;-70
2021/09/08 03:18:09;;;;;;;10.23;8.73;;;;;;;11.43;100.00;101638.28;5036640;28;20563;-71
2021/09/08 03:20:34;;;;;;;10.27;8.60;;;;;;;11.41;100.00;101637.50;5054363;28;20225;-71
2021/09/08 03:23:00;;;;;;;12.60;9.63;;;;;;;11.44;100.00;101631.16;5054782;28;20176;-71
2021/09/08 03:25:26;;;;;;;13.27;9.87;;;;;;;11.49;100.00;101627.31;5036526;28;20234;-73
2021/09/08 03:27:52;;;;;;;9.43;8.37;;;;;;;11.48;100.00;101630.06;5054387;28;20179;-72
2021/09/08 03:30:17;;;;;;;11.50;8.23;;;;;;;11.42;100.00;101625.88;5036540;28;20185;-75
2021/09/08 03:32:42;;;;;;;12.97;9.50;;;;;;;11.43;100.00;101626.75;5036543;28;20197;-74
2021/09/08 03:35:08;;;;;;;14.47;11.03;;;;;;;11.53;100.00;101628.09;5036467;28;20202;-74
2021/09/08 03:37:33;;;;;;;13.93;11.13;;;;;;;11.62;100.00;101630.34;5036926;28;20198;-74
2021/09/08 03:39:59;;;;;;;13.17;10.67;;;;;;;11.66;100.00;101631.06;5036740;28;20164;-74
2021/09/08 03:42:24;;;;;;;13.07;9.90;;;;;;;11.73;100.00;101635.22;5036261;28;20191;-74
2021/09/08 03:44:50;;;;;;;12.60;10.63;;;;;;;11.84;100.00;101636.47;5054090;28;20270;-72
2021/09/08 03:47:15;;;;;;;13.33;10.17;;;;;;;11.98;100.00;101627.84;5036454;28;20218;-72
2021/09/08 03:49:45;;;;;;;11.30;9.53;;;;;;;12.02;100.00;101634.78;5036725;28;20233;-74
2021/09/08 03:52:10;;;;;;;13.93;9.10;;;;;;;12.12;100.00;101627.19;5039300;28;20690;-76
2021/09/08 03:54:36;;;;;;;10.60;8.37;;;;;;;12.23;100.00;101629.34;5036347;28;20172;-74
2021/09/08 03:57:01;;;;;;;12.87;8.67;;;;;;;12.24;100.00;101631.09;5019813;28;20190;-72
2021/09/08 03:59:26;;;;;;;10.70;8.67;;;;;;;12.23;100.00;101634.72;5053948;28;20171;-70
2021/09/08 04:01:51;;;;;;;11.93;8.50;;;;;;;12.22;100.00;101625.81;5035920;28;20195;-72
2021/09/08 04:04:17;;;;;;;14.73;8.63;;;;;;;12.19;100.00;101632.19;5035895;28;20262;-71
2021/09/08 04:06:42;;;;;;;12.00;7.83;;;;;;;12.07;100.00;101634.56;5053695;28;20195;-71
2021/09/08 04:09:07;;;;;;;15.00;8.17;;;;;;;12.12;100.00;101635.22;5053498;28;20544;-71
2021/09/08 04:11:33;;;;;;;13.10;8.10;;;;;;;12.18;100.00;101626.91;5053910;28;20168;-72
2021/09/08 04:13:58;;;;;;;10.23;7.37;;;;;;;12.25;100.00;101627.47;5057357;28;20182;-72
2021/09/08 04:16:23;;;;;;;9.80;7.77;;;;;;;12.23;100.00;101632.03;5035715;28;20237;-73
2021/09/08 04:18:49;;;;;;;10.13;7.57;;;;;;;12.15;100.00;101625.25;5053993;28;20632;-72
2021/09/08 04:21:14;;;;;;;12.03;8.07;;;;;;;12.04;100.00;101627.56;5053385;28;20562;-71
2021/09/08 04:23:39;;;;;;;10.83;8.53;;;;;;;11.94;100.00;101636.97;5035700;28;20203;-72
2021/09/08 04:26:04;;;;;;;11.83;8.50;;;;;;;12.05;100.00;101633.78;5035647;28;20672;-70
2021/09/08 04:28:30;;;;;;;9.97;7.80;;;;;;;12.14;100.00;101636.88;5053414;28;20175;-71
2021/09/08 04:30:55;;;;;;;9.63;8.00;;;;;;;12.20;100.00;101627.69;5053231;28;20222;-71
2021/09/08 04:33:20;;;;;;;10.27;8.53;;;;;;;12.17;100.00;101622.50;5035595;28;20179;-72
2021/09/08 04:35:46;;;;;;;13.80;9.20;;;;;;;12.16;100.00;101624.31;5053915;28;20194;-72
2021/09/08 04:38:11;;;;;;;15.57;9.03;;;;;;;12.18;100.00;101627.78;5052672;28;20179;-70
2021/09/08 04:40:36;;;;;;;10.03;8.07;;;;;;;12.09;100.00;101625.53;5053242;28;20187;-70
2021/09/08 04:43:02;;;;;;;9.77;8.00;;;;;;;12.04;100.00;101619.53;5053677;28;20176;-70
2021/09/08 04:45:27;;;;;;;12.30;8.33;;;;;;;12.06;100.00;101611.44;5053092;28;20183;-69
2021/09/08 04:47:53;;;;;;;14.67;8.93;;;;;;;12.03;100.00;101612.44;5035361;28;20639;-70
2021/09/08 04:50:18;;;;;;;10.17;8.53;;;;;;;12.04;100.00;101624.00;5053148;28;20637;-71
2021/09/08 04:52:43;;;;;;;10.60;8.33;;;;;;;12.05;100.00;101617.72;5053165;28;20170;-71
2021/09/08 04:55:10;;;;;;;13.03;8.93;;;;;;;12.10;100.00;101621.91;5053051;28;20195;-71
2021/09/08 04:57:35;;;;;;;11.30;8.10;;;;;;;12.11;100.00;101617.44;5053058;28;20542;-69
2021/09/08 05:00:00;;;;;;;15.93;8.53;;;;;;;12.17;100.00;101622.50;5035614;28;20179;-71
2021/09/08 05:02:25;;;;;;;16.03;8.63;;;;;;;12.18;100.00;101616.19;5035116;28;20200;-71
2021/09/08 05:04:51;;;;;;;12.13;8.53;;;;;;;12.19;100.00;101624.16;5035883;28;20195;-72
2021/09/08 05:07:16;;;;;;;12.77;7.97;;;;;;;12.25;100.00;101630.16;5053157;28;20487;-68
2021/09/08 05:09:41;;;;;;;11.47;7.83;;;;;;;12.26;100.00;101623.84;5053403;28;20180;-70
2021/09/08 05:12:07;;;;;;;12.27;7.70;;;;;;;12.30;100.00;101629.03;5047520;28;20174;-75
2021/09/08 05:14:32;;;;;;;12.73;8.00;;;;;;;12.38;100.00;101629.53;5038906;28;20187;-74
2021/09/08 05:16:57;;;;;;;11.40;6.80;;;;;;;12.41;100.00;101632.06;5061020;23;20257;-70
2021/09/08 05:19:23;;;;;;;11.17;7.30;;;;;;;12.44;100.00;101626.53;5034735;28;20185;-69
2021/09/08 05:21:48;;;;;;;16.60;7.80;;;;;;;12.45;100.00;101619.38;5035194;28;20270;-70
2021/09/08 05:24:13;;;;;;;11.50;7.57;;;;;;;12.49;100.00;101629.00;5034738;28;20198;-71
2021/09/08 05:26:39;;;;;;;11.70;8.30;;;;;;;12.57;100.00;101624.13;5034711;28;20200;-70
2021/09/08 05:29:06;;;;;;;13.63;8.27;;;;;;;12.62;100.00;101626.56;5052569;28;20267;-70
2021/09/08 05:31:31;;;;;;;9.50;8.07;;;;;;;12.63;100.00;101622.97;5035069;28;20206;-72
2021/09/08 05:33:56;;;;;;;12.00;8.33;;;;;;;12.58;100.00;101617.84;5036253;28;20188;-70
2021/09/08 05:36:21;;;;;;;10.97;7.87;;;;;;;12.60;100.00;101620.44;5052709;28;20269;-72
2021/09/08 05:38:47;;;;;;;11.53;7.53;;;;;;;12.69;100.00;101628.91;5052464;28;20172;-70
2021/09/08 05:41:12;;;;;;;19.40;7.63;;;;;;;12.71;100.00;101627.03;5018089;28;20200;-71
2021/09/08 05:43:38;;;;;;;11.17;7.23;;;;;;;12.69;100.00;101626.22;5034682;28;20184;-70
2021/09/08 05:46:04;;;;;;;11.57;8.07;;;;;;;12.59;100.00;101622.25;5034583;28;20191;-70
2021/09/08 05:48:31;;;;;;;12.77;8.23;;;;;;;12.64;100.00;101620.25;5034438;28;20182;-72
2021/09/08 05:50:56;;;;;;;13.57;7.27;;;;;;;12.79;100.00;101616.78;5021340;28;20182;-69
2021/09/08 05:53:22;;;;;;;12.83;7.57;;;;;;;12.77;100.00;101610.66;5038818;28;20175;-69
2021/09/08 05:55:47;;;;;;;14.60;8.90;;;;;;;12.82;100.00;101616.63;5058978;28;20248;-69
2021/09/08 05:58:12;;;;;;;15.77;8.27;;;;;;;12.91;100.00;101619.78;5022256;28;20175;-71
2021/09/08 06:00:38;;;;;;;12.47;8.20;;;;;;;12.90;100.00;101618.06;5056468;28;20180;-71
2021/09/08 06:03:03;;;;;;;13.37;7.63;;;;;;;12.89;100.00;101627.03;5038732;28;20176;-70
2021/09/08 06:05:28;;;;;;;11.23;7.87;;;;;;;12.83;100.00;101617.50;5038349;28;20215;-70
2021/09/08 06:07:53;;;;;;;15.67;8.90;;;;;;;12.94;100.00;101619.63;5038283;28;20540;-70
2021/09/08 06:10:20;;;;;;;11.73;8.47;;;;;;;13.01;100.00;101621.09;5055915;28;20175;-72
2021/09/08 06:12:47;;;;;;;13.20;8.20;;;;;;;13.00;100.00;101614.81;5021808;28;20207;-70
2021/09/08 06:15:12;;;;;;;10.03;7.40;;;;;;;13.00;100.00;101625.53;5055638;28;20731;-69
2021/09/08 06:17:38;;;;;;;12.70;8.53;;;;;;;12.94;100.00;101620.50;5038333;28;20250;-70
2021/09/08 06:20:04;;;;;;;11.53;8.43;;;;;;;13.07;100.00;101628.81;5038051;28;20633;-69
2021/09/08 06:22:29;;;;;;;18.07;9.53;;;;;;;13.07;100.00;101631.50;5037500;28;20241;-70
2021/09/08 06:24:54;;;;;;;12.30;8.80;;;;;;;13.30;100.00;101633.00;5055730;28;20202;-71
2021/09/08 06:27:20;;;;;;;12.40;8.77;;;;;;;13.41;100.00;101625.31;5021349;28;20187;-70
2021/09/08 06:29:45;;;;;;;17.07;8.63;;;;;;;13.52;100.00;101627.41;5038296;28;20183;-70
2021/09/08 06:32:10;;;;;;;13.20;7.93;;;;;;;13.73;100.00;101629.81;5038205;28;20176;-70
2021/09/08 06:34:35;;;;;;;16.93;7.97;;;;;;;13.86;100.00;101624.66;5055889;28;20182;-70
2021/09/08 06:37:01;;;;;;;19.70;9.23;;;;;;;13.82;100.00;101623.09;5055463;28;20200;-70
2021/09/08 06:39:26;;;;;;;13.63;8.70;;;;;;;13.95;100.00;101625.97;5037796;28;20175;-70
2021/09/08 06:41:51;;;;;;;23.90;10.10;;;;;;;13.94;100.00;101621.56;5038181;28;20233;-71
2021/09/08 06:44:17;;;;;;;17.87;10.10;;;;;;;13.96;100.00;101622.34;5021457;28;20556;-69
2021/09/08 06:46:43;;;;;;;20.33;10.90;;;;;;;14.08;100.00;101621.66;5055806;28;20196;-69
2021/09/08 06:49:08;;;;;;;19.83;10.10;;;;;;;14.29;100.00;101625.84;5021606;28;20178;-71
2021/09/08 06:51:33;;;;;;;24.03;10.27;;;;;;;14.38;100.00;101619.09;5056219;28;20175;-72
2021/09/08 06:53:58;;;;;;;23.97;10.20;;;;;;;14.62;100.00;101628.50;5059947;28;20175;-70
2021/09/08 06:56:24;;;;;;;21.37;11.37;;;;;;;14.67;100.00;101623.72;5056627;28;20195;-70
2021/09/08 06:58:49;;;;;;;17.13;10.37;;;;;;;14.90;100.00;101618.84;5038381;28;20660;-71
2021/09/08 07:01:14;;;;;;;18.83;9.53;;;;;;;15.11;99.95;101614.88;5036755;28;20199;-69
2021/09/08 07:03:40;;;;;;;15.50;10.33;;;;;;;15.25;98.00;101620.31;5037363;28;20182;-70
2021/09/08 07:06:05;;;;;;;18.23;11.20;;;;;;;15.37;97.99;101620.53;5020961;28;20195;-70
2021/09/08 07:08:30;;;;;;;23.27;10.63;;;;;;;15.48;97.43;101613.53;5042717;28;20182;-71
2021/09/08 07:10:56;;;;;;;23.63;10.70;;;;;;;15.66;97.55;101616.09;5026711;28;20195;-71
2021/09/08 07:13:21;;;;;;;15.40;10.40;;;;;;;15.77;96.28;101625.22;5055319;28;20593;-70
2021/09/08 07:15:46;;;;;;;16.03;10.13;;;;;;;15.94;96.15;101622.34;5054533;28;20210;-69
2021/09/08 07:18:12;;;;;;;18.23;11.70;;;;;;;16.06;94.41;101626.09;5055005;28;20204;-71
2021/09/08 07:20:38;;;;;;;14.37;10.13;;;;;;;16.18;94.12;101619.91;5036772;28;20172;-70
2021/09/08 07:23:04;;;;;;;20.33;10.70;;;;;;;16.30;93.61;101620.97;5036966;28;20175;-69
2021/09/08 07:25:29;;;;;;;17.67;10.63;;;;;;;16.36;92.69;101617.03;5037062;28;20195;-72
2021/09/08 07:27:54;;;;;;;16.00;10.53;;;;;;;16.50;92.62;101616.97;5036564;28;20183;-69
2021/09/08 07:30:20;;;;;;;17.80;10.17;;;;;;;16.59;91.73;101613.69;5054376;28;20176;-71
2021/09/08 07:32:45;;;;;;;17.63;10.63;;;;;;;16.72;91.13;101608.38;5019807;28;20179;-71
2021/09/08 07:35:11;;;;;;;17.23;10.97;;;;;;;16.75;89.56;101609.06;5036443;28;20176;-71
2021/09/08 07:37:37;;;;;;;16.77;10.70;;;;;;;16.90;90.13;101604.47;5036393;28;20660;-70
2021/09/08 07:40:03;;;;;;;16.47;10.37;;;;;;;16.79;90.02;101607.88;5036530;28;20229;-70
2021/09/08 07:42:29;;;;;;;17.77;10.80;;;;;;;17.04;89.16;101615.16;5036395;28;20207;-69
2021/09/08 07:44:54;;;;;;;21.43;10.50;;;;;;;17.27;89.08;101607.34;5036524;28;20176;-70
2021/09/08 07:47:19;;;;;;;22.00;10.60;;;;;;;17.40;88.09;101601.00;5036663;28;20179;-69
2021/09/08 07:49:45;;;;;;;15.40;9.87;;;;;;;17.47;88.15;101601.47;5019538;28;20668;-69
2021/09/08 07:52:11;;;;;;;15.87;9.67;;;;;;;17.69;87.60;101603.53;5036237;28;20168;-71
2021/09/08 07:54:36;;;;;;;19.03;9.10;;;;;;;17.78;86.08;101605.56;5036220;28;20176;-70
2021/09/08 07:57:02;;;;;;;17.00;8.83;;;;;;;17.89;85.21;101607.53;5036053;28;20206;-70
2021/09/08 07:59:27;;;;;;;12.43;9.07;;;;;;;18.01;84.93;101596.72;5054083;28;20179;-70
2021/09/08 08:01:52;;;;;;;10.37;8.10;;;;;;;18.08;84.78;101607.94;5053709;28;20193;-70
2021/09/08 08:04:18;;;;;;;13.13;8.17;;;;;;;18.27;83.71;101605.63;5019701;28;20186;-69
2021/09/08 08:06:43;;;;;;;12.80;8.37;;;;;;;18.31;82.44;101609.84;5036938;28;20187;-70
2021/09/08 08:09:08;;;;;;;12.47;7.93;;;;;;;18.34;82.27;101604.19;5036180;28;20183;-71
2021/09/08 08:11:34;;;;;;;13.73;8.43;;;;;;;18.35;81.90;101603.22;5054473;28;20179;-70
2021/09/08 08:14:00;;;;;;;14.03;8.27;;;;;;;18.60;80.90;101604.13;5035826;28;20699;-69
2021/09/08 08:16:25;;;;;;;12.13;8.03;;;;;;;18.60;nan;101606.84;5035587;28;20238;-69
2021/09/08 08:18:50;;;;;;;13.67;8.20;;;;;;;18.40;82.01;101592.94;5019300;28;20243;-70
2021/09/08 08:21:15;;;;;;;14.00;8.60;;;;;;;18.56;82.53;101602.59;5035802;28;20207;-70
2021/09/08 08:23:41;;;;;;;11.23;7.90;;;;;;;18.73;82.02;101596.84;5035748;28;20651;-70
2021/09/08 08:26:06;;;;;;;12.47;8.17;;;;;;;18.67;80.64;101592.78;5035830;28;20278;-69
2021/09/08 08:28:31;;;;;;;11.67;8.37;;;;;;;18.78;80.02;101596.50;5053570;28;20199;-69
2021/09/08 08:30:59;;;;;;;16.90;8.40;;;;;;;18.94;80.68;101595.22;5018994;28;20167;-69
2021/09/08 08:33:25;;;;;;;12.43;8.07;;;;;;;19.10;80.62;101591.34;5053605;28;20641;-69
2021/09/08 08:35:50;;;;;;;16.33;9.03;;;;;;;19.18;78.79;101595.19;5019173;28;20676;-69
2021/09/08 08:38:15;;;;;;;12.07;7.77;;;;;;;19.04;78.07;101582.72;5035174;28;20190;-69
2021/09/08 08:40:40;;;;;;;15.57;8.77;;;;;;;19.08;78.45;101591.47;5053318;28;20176;-69
2021/09/08 08:43:06;;;;;;;12.93;8.70;;;;;;;19.20;77.81;101581.53;5019093;28;20172;-68
2021/09/08 08:45:31;;;;;;;9.63;7.63;;;;;;;19.41;77.94;101588.00;5052840;28;20199;-70
2021/09/08 08:47:58;;;;;;;12.23;8.40;;;;;;;19.34;77.19;101582.22;5052929;28;20182;-69
2021/09/08 08:50:26;;;;;;;11.53;9.17;;;;;;;19.76;74.55;101585.25;5035260;28;20625;-69
2021/09/08 08:52:51;;;;;;;10.43;8.40;;;;;;;19.72;75.40;101593.75;5035591;28;20656;-71
2021/09/08 08:55:16;;;;;;;12.20;7.97;;;;;;;19.78;75.33;101587.84;5035504;28;20195;-70
2021/09/08 08:57:42;;;;;;;12.30;7.53;;;;;;;19.84;74.13;101588.22;5035494;28;20498;-69
2021/09/08 09:00:07;;;;;;;16.97;8.40;;;;;;;19.57;75.10;101582.28;5035433;28;20557;-70
2021/09/08 09:02:34;;;;;;;10.73;8.37;;;;;;;19.86;74.62;101580.81;5035075;28;20203;-70
2021/09/08 09:05:01;;;;;;;13.40;7.60;;;;;;;20.02;75.26;101576.88;5035491;28;20175;-70
2021/09/08 09:07:35;;;;;;;13.13;10.33;;;;;;;20.23;75.38;101583.25;5035530;28;20221;-71
2021/09/08 09:10:04;;;;;;;13.13;8.07;;;;;;;19.98;73.99;101582.53;5036038;28;20163;-69
2021/09/08 09:12:33;;;;;;;16.10;8.10;;;;;;;20.12;74.60;101578.72;5034970;28;20183;-70
2021/09/08 09:15:00;;;;;;;10.77;7.93;;;;;;;19.71;72.99;101578.50;5052615;28;20202;-71
2021/09/08 09:17:30;;;;;;;12.67;7.73;;;;;;;20.26;72.46;101578.44;5035902;28;20194;-70
2021/09/08 09:19:57;;;;;;;10.63;7.93;;;;;;;20.19;71.04;101571.81;5035711;28;20656;-72
2021/09/08 09:23:00;;;;;;;10.00;7.53;;;;;;;20.44;71.18;101570.69;5053001;28;20261;-69
2021/09/08 09:25:28;;;;;;;10.23;8.03;;;;;;;20.38;71.51;101567.56;5054349;28;20215;-69
2021/09/08 09:27:58;;;;;;;13.07;8.17;;;;;;;20.34;71.38;101558.84;5039417;28;20175;-70
2021/09/08 09:30:25;;;;;;;10.30;7.43;;;;;;;20.64;72.00;101563.59;5042475;28;20555;-69
2021/09/08 09:32:52;;;;;;;12.00;8.10;;;;;;;20.64;69.84;101549.19;5039435;28;20176;-70
2021/09/08 09:35:20;;;;;;;11.60;8.00;;;;;;;20.47;70.66;101553.31;5039820;28;20192;-70
2021/09/08 09:37:53;;;;;;;10.53;7.30;;;;;;;20.76;69.98;101554.41;5039664;28;20239;-72
2021/09/08 09:40:37;;;;;;;11.60;7.77;;;;;;;20.67;71.38;101541.66;5022737;28;20180;-70
2021/09/08 09:43:10;;;;;;;9.60;7.80;;;;;;;21.01;70.36;101546.94;5039395;28;20199;-71
2021/09/08 09:45:38;;;;;;;10.60;7.77;;;;;;;20.46;69.98;101547.03;5039345;28;20603;-70
2021/09/08 09:48:05;;;;;;;10.30;7.47;;;;;;;20.92;69.17;101535.88;5039176;28;20186;-70
2021/09/08 09:50:32;;;;;;;11.40;7.57;;;;;;;20.93;68.58;101544.88;5023596;28;20179;-69
2021/09/08 09:52:58;;;;;;;12.37;7.13;;;;;;;21.06;68.66;101533.81;5039970;28;20625;-70
2021/09/08 09:55:24;;;;;;;10.03;8.17;;;;;;;21.00;67.43;101531.63;5024928;28;20199;-70
2021/09/08 09:57:50;;;;;;;9.50;7.20;;;;;;;21.34;66.51;101527.75;5041503;28;20178;-72
2021/09/08 10:00:16;;;;;;;9.53;7.33;;;;;;;21.56;65.48;101520.44;5041419;28;20180;-71
2021/09/08 10:02:42;;;;;;;10.10;7.47;;;;;;;21.82;64.82;101524.41;5063689;28;20261;-70
2021/09/08 10:05:09;;;;;;;11.80;7.73;;;;;;;21.41;65.92;101520.78;5033280;28;20175;-71
2021/09/08 10:07:35;;;;;;;11.10;7.80;;;;;;;21.50;65.37;101525.41;5034388;28;20197;-72
2021/09/08 10:10:04;;;;;;;12.87;7.43;;;;;;;21.82;64.21;101521.69;5069185;28;20176;-71
2021/09/08 10:12:54;;;;;;;10.90;7.50;;;;;;;21.89;64.48;101513.84;5038937;28;20164;-70
2021/09/08 10:15:20;;;;;;;9.10;6.50;;;;;;;22.00;62.39;101517.34;5038424;28;20676;-69
2021/09/08 10:17:47;;;;;;;9.63;7.07;;;;;;;22.04;62.62;101515.22;5038679;28;20255;-70
2021/09/08 10:20:23;;;;;;;8.83;6.63;;;;;;;22.24;61.80;101510.69;5038018;28;20184;-71
2021/09/08 10:22:49;;;;;;;11.50;6.90;;;;;;;21.98;62.58;101504.88;5021742;28;20235;-70
2021/09/08 10:25:16;;;;;;;9.00;5.85;;;;;;;22.52;62.01;101509.00;5037956;28;20230;-73
2021/09/08 10:27:43;;;;;;;7.77;6.60;;;;;;;22.89;62.03;101495.59;5037782;28;20172;-71
2021/09/08 10:30:10;;;;;;;12.50;7.90;;;;;;;22.51;61.09;101502.72;5037959;28;20655;-70
2021/09/08 10:32:36;;;;;;;9.53;6.87;;;;;;;22.80;60.63;101497.28;5037959;28;20175;-70
2021/09/08 10:35:15;;;;;;;;;;;;;;;22.83;60.11;101491.59;5037592;28;20183;-70
2021/09/08 10:37:48;;;;;;;9.20;6.63;;;;;;;23.25;59.18;101485.78;5037689;28;20161;-70
2021/09/08 10:40:14;;;;;;;12.60;7.10;;;;;;;23.28;59.90;101491.78;5038637;28;20605;-69
2021/09/08 10:42:57;;;;;;;9.83;6.70;;;;;;;23.85;57.46;101489.88;5038086;28;20222;-70
2021/09/08 10:45:27;;;;;;;9.30;7.17;;;;;;;23.77;57.72;101484.31;5037549;28;20241;-70
2021/09/08 10:47:54;;;;;;;13.47;7.27;;;;;;;23.23;59.18;101483.19;5040322;28;20245;-71
2021/09/08 10:50:34;;;;;;;11.83;7.13;;;;;;;23.75;57.26;101483.59;5039963;28;20179;-68
2021/09/08 10:53:24;;;;;;;9.10;6.63;;;;;;;24.21;55.20;101473.59;5055296;28;20167;-70
2021/09/08 10:55:51;;;;;;;10.47;7.10;;;;;;;24.30;55.23;101462.63;5039801;28;20222;-69
2021/09/08 10:58:17;;;;;;;8.27;6.80;;;;;;;25.59;52.89;101468.41;5020359;28;20180;-69
2021/09/08 11:00:43;;;;;;;8.13;6.30;;;;;;;27.50;50.01;101476.38;5036979;28;20162;-70
2021/09/08 11:03:14;;;;;;;9.20;6.60;;;;;;;27.86;47.35;101463.06;5037147;28;20221;-70
2021/09/08 11:05:48;;;;;;;10.17;6.97;;;;;;;29.56;44.32;101460.88;5036976;28;20560;-68
2021/09/08 11:08:30;;;;;;;8.33;6.27;;;;;;;28.36;47.54;101469.19;5036879;28;20171;-70